sensor_id;sensor_type;location;lat;lon;timestamp;P1;durP1;ratioP1;P2;durP2;ratioP2
47239;SDS011;32978;53.586;10.052;2023-12-22T00:04:56;21.65;;;5.00;;
47239;SDS011;32978;53.586;10.052;2023-12-22T00:09:52;24.50;;;4.38;;
47239;SDS011;32978;53.586;10.052;2023-12-22T00:14:48;16.73;;;3.75;;
47239;SDS011;32978;53.586;10.052;2023-12-22T00:19:45;25.85;;;5.28;;
47239;SDS011;32978;53.586;10.052;2023-12-22T00:24:41;12.85;;;3.65;;
47239;SDS011;32978;53.586;10.052;2023-12-22T00:29:38;14.85;;;3.47;;
47239;SDS011;32978;53.586;10.052;2023-12-22T00:34:34;20.15;;;4.60;;
47239;SDS011;32978;53.586;10.052;2023-12-22T00:39:31;21.63;;;4.72;;
47239;SDS011;32978;53.586;10.052;2023-12-22T00:44:27;13.40;;;4.68;;
47239;SDS011;32978;53.586;10.052;2023-12-22T00:49:25;22.88;;;4.00;;
47239;SDS011;32978;53.586;10.052;2023-12-22T00:54:22;25.80;;;3.88;;
47239;SDS011;32978;53.586;10.052;2023-12-22T00:59:18;26.05;;;4.97;;
47239;SDS011;32978;53.586;10.052;2023-12-22T01:04:16;20.02;;;5.60;;
47239;SDS011;32978;53.586;10.052;2023-12-22T01:09:12;24.73;;;4.70;;
47239;SDS011;32978;53.586;10.052;2023-12-22T01:14:11;14.70;;;5.32;;
47239;SDS011;32978;53.586;10.052;2023-12-22T01:19:09;21.08;;;5.40;;
47239;SDS011;32978;53.586;10.052;2023-12-22T01:24:05;14.63;;;3.90;;
47239;SDS011;32978;53.586;10.052;2023-12-22T01:29:02;14.35;;;5.00;;
47239;SDS011;32978;53.586;10.052;2023-12-22T01:33:58;11.85;;;5.70;;
47239;SDS011;32978;53.586;10.052;2023-12-22T01:38:55;12.43;;;5.28;;
47239;SDS011;32978;53.586;10.052;2023-12-22T01:43:51;7.60;;;6.20;;
47239;SDS011;32978;53.586;10.052;2023-12-22T01:48:47;6.03;;;5.30;;
47239;SDS011;32978;53.586;10.052;2023-12-22T01:53:44;10.48;;;5.88;;
47239;SDS011;32978;53.586;10.052;2023-12-22T01:58:41;14.00;;;5.97;;
47239;SDS011;32978;53.586;10.052;2023-12-22T02:03:38;15.20;;;7.32;;
47239;SDS011;32978;53.586;10.052;2023-12-22T02:08:34;8.07;;;5.45;;
47239;SDS011;32978;53.586;10.052;2023-12-22T02:13:31;8.80;;;5.55;;
47239;SDS011;32978;53.586;10.052;2023-12-22T02:18:30;8.57;;;5.30;;
47239;SDS011;32978;53.586;10.052;2023-12-22T02:23:29;8.60;;;5.50;;
47239;SDS011;32978;53.586;10.052;2023-12-22T02:28:25;7.18;;;5.85;;
47239;SDS011;32978;53.586;10.052;2023-12-22T02:33:22;9.07;;;6.18;;
47239;SDS011;32978;53.586;10.052;2023-12-22T02:38:19;9.10;;;6.10;;
47239;SDS011;32978;53.586;10.052;2023-12-22T02:43:16;12.43;;;6.47;;
47239;SDS011;32978;53.586;10.052;2023-12-22T02:48:12;12.50;;;6.13;;
47239;SDS011;32978;53.586;10.052;2023-12-22T02:53:08;14.77;;;5.82;;
47239;SDS011;32978;53.586;10.052;2023-12-22T02:58:05;9.70;;;5.47;;
47239;SDS011;32978;53.586;10.052;2023-12-22T03:03:01;10.48;;;5.38;;
47239;SDS011;32978;53.586;10.052;2023-12-22T03:07:58;8.45;;;5.13;;
47239;SDS011;32978;53.586;10.052;2023-12-22T03:12:54;6.35;;;4.55;;
47239;SDS011;32978;53.586;10.052;2023-12-22T03:17:50;7.47;;;4.80;;
47239;SDS011;32978;53.586;10.052;2023-12-22T03:22:47;7.82;;;4.45;;
47239;SDS011;32978;53.586;10.052;2023-12-22T03:27:44;10.02;;;4.80;;
47239;SDS011;32978;53.586;10.052;2023-12-22T03:32:40;4.70;;;4.25;;
47239;SDS011;32978;53.586;10.052;2023-12-22T03:37:36;5.65;;;4.10;;
47239;SDS011;32978;53.586;10.052;2023-12-22T03:42:33;6.45;;;3.95;;
47239;SDS011;32978;53.586;10.052;2023-12-22T03:47:29;7.90;;;4.38;;
47239;SDS011;32978;53.586;10.052;2023-12-22T03:52:25;6.00;;;4.40;;
47239;SDS011;32978;53.586;10.052;2023-12-22T03:57:22;8.88;;;5.13;;
47239;SDS011;32978;53.586;10.052;2023-12-22T04:02:19;8.80;;;5.00;;
47239;SDS011;32978;53.586;10.052;2023-12-22T04:07:15;15.40;;;5.78;;
47239;SDS011;32978;53.586;10.052;2023-12-22T04:12:11;22.23;;;6.20;;
47239;SDS011;32978;53.586;10.052;2023-12-22T04:17:08;11.90;;;5.97;;
47239;SDS011;32978;53.586;10.052;2023-12-22T04:22:04;9.82;;;5.18;;
47239;SDS011;32978;53.586;10.052;2023-12-22T04:27:00;11.50;;;5.90;;
47239;SDS011;32978;53.586;10.052;2023-12-22T04:31:57;13.55;;;5.88;;
47239;SDS011;32978;53.586;10.052;2023-12-22T04:36:53;9.70;;;5.45;;
47239;SDS011;32978;53.586;10.052;2023-12-22T04:41:50;15.82;;;6.85;;
47239;SDS011;32978;53.586;10.052;2023-12-22T04:46:46;8.38;;;5.40;;
47239;SDS011;32978;53.586;10.052;2023-12-22T04:51:42;14.10;;;6.22;;
47239;SDS011;32978;53.586;10.052;2023-12-22T04:56:38;14.73;;;6.32;;
47239;SDS011;32978;53.586;10.052;2023-12-22T05:01:35;12.57;;;5.82;;
47239;SDS011;32978;53.586;10.052;2023-12-22T05:06:31;14.82;;;5.53;;
47239;SDS011;32978;53.586;10.052;2023-12-22T05:11:28;7.85;;;4.85;;
47239;SDS011;32978;53.586;10.052;2023-12-22T05:16:24;11.10;;;5.72;;
47239;SDS011;32978;53.586;10.052;2023-12-22T05:21:20;9.15;;;6.95;;
47239;SDS011;32978;53.586;10.052;2023-12-22T05:26:17;11.20;;;7.18;;
47239;SDS011;32978;53.586;10.052;2023-12-22T05:31:16;15.05;;;7.93;;
47239;SDS011;32978;53.586;10.052;2023-12-22T05:36:12;8.65;;;6.45;;
47239;SDS011;32978;53.586;10.052;2023-12-22T05:41:09;7.55;;;6.63;;
47239;SDS011;32978;53.586;10.052;2023-12-22T05:46:05;17.83;;;7.78;;
47239;SDS011;32978;53.586;10.052;2023-12-22T05:51:02;11.18;;;7.18;;
47239;SDS011;32978;53.586;10.052;2023-12-22T05:56:03;11.37;;;7.30;;
47239;SDS011;32978;53.586;10.052;2023-12-22T06:01:00;10.43;;;7.50;;
47239;SDS011;32978;53.586;10.052;2023-12-22T06:05:57;10.60;;;7.57;;
47239;SDS011;32978;53.586;10.052;2023-12-22T06:15:57;13.68;;;8.52;;
47239;SDS011;32978;53.586;10.052;2023-12-22T06:20:54;10.77;;;8.40;;
47239;SDS011;32978;53.586;10.052;2023-12-22T06:25:50;9.23;;;8.20;;
47239;SDS011;32978;53.586;10.052;2023-12-22T06:30:47;10.90;;;8.68;;
47239;SDS011;32978;53.586;10.052;2023-12-22T06:35:43;22.75;;;9.55;;
47239;SDS011;32978;53.586;10.052;2023-12-22T06:40:41;15.15;;;8.35;;
47239;SDS011;32978;53.586;10.052;2023-12-22T06:45:37;16.98;;;8.85;;
47239;SDS011;32978;53.586;10.052;2023-12-22T06:50:33;23.42;;;8.85;;
47239;SDS011;32978;53.586;10.052;2023-12-22T07:01:34;19.88;;;6.97;;
47239;SDS011;32978;53.586;10.052;2023-12-22T07:06:32;21.05;;;7.50;;
47239;SDS011;32978;53.586;10.052;2023-12-22T07:11:28;14.30;;;6.60;;
47239;SDS011;32978;53.586;10.052;2023-12-22T07:16:33;22.23;;;7.50;;
47239;SDS011;32978;53.586;10.052;2023-12-22T07:21:30;21.05;;;8.77;;
47239;SDS011;32978;53.586;10.052;2023-12-22T07:26:27;16.50;;;7.78;;
47239;SDS011;32978;53.586;10.052;2023-12-22T07:31:23;23.83;;;8.30;;
47239;SDS011;32978;53.586;10.052;2023-12-22T07:36:20;22.38;;;7.10;;
47239;SDS011;32978;53.586;10.052;2023-12-22T07:41:18;14.27;;;7.82;;
47239;SDS011;32978;53.586;10.052;2023-12-22T07:46:19;26.02;;;9.10;;
47239;SDS011;32978;53.586;10.052;2023-12-22T07:51:16;19.55;;;8.70;;
47239;SDS011;32978;53.586;10.052;2023-12-22T07:56:12;16.77;;;9.93;;
47239;SDS011;32978;53.586;10.052;2023-12-22T08:01:09;23.45;;;9.60;;
47239;SDS011;32978;53.586;10.052;2023-12-22T08:06:05;15.18;;;8.25;;
47239;SDS011;32978;53.586;10.052;2023-12-22T08:11:04;13.23;;;7.28;;
47239;SDS011;32978;53.586;10.052;2023-12-22T08:16:01;11.88;;;8.50;;
47239;SDS011;32978;53.586;10.052;2023-12-22T08:20:57;12.77;;;8.82;;
47239;SDS011;32978;53.586;10.052;2023-12-22T08:25:54;17.88;;;9.43;;
47239;SDS011;32978;53.586;10.052;2023-12-22T08:30:50;16.05;;;9.48;;
47239;SDS011;32978;53.586;10.052;2023-12-22T08:35:47;12.65;;;8.32;;
47239;SDS011;32978;53.586;10.052;2023-12-22T08:40:43;18.17;;;10.10;;
47239;SDS011;32978;53.586;10.052;2023-12-22T08:45:39;9.80;;;7.68;;
47239;SDS011;32978;53.586;10.052;2023-12-22T08:50:36;10.63;;;7.78;;
47239;SDS011;32978;53.586;10.052;2023-12-22T08:55:32;20.48;;;8.73;;
47239;SDS011;32978;53.586;10.052;2023-12-22T09:00:29;18.00;;;6.20;;
47239;SDS011;32978;53.586;10.052;2023-12-22T09:05:25;9.80;;;6.25;;
47239;SDS011;32978;53.586;10.052;2023-12-22T09:10:22;12.32;;;6.38;;
47239;SDS011;32978;53.586;10.052;2023-12-22T09:15:18;11.73;;;6.35;;
47239;SDS011;32978;53.586;10.052;2023-12-22T09:20:14;6.80;;;6.13;;
47239;SDS011;32978;53.586;10.052;2023-12-22T09:25:11;15.23;;;5.95;;
47239;SDS011;32978;53.586;10.052;2023-12-22T09:30:07;15.20;;;6.40;;
47239;SDS011;32978;53.586;10.052;2023-12-22T09:35:04;11.48;;;6.07;;
47239;SDS011;32978;53.586;10.052;2023-12-22T09:40:00;12.45;;;5.95;;
47239;SDS011;32978;53.586;10.052;2023-12-22T09:44:56;12.82;;;6.28;;
47239;SDS011;32978;53.586;10.052;2023-12-22T09:49:55;17.65;;;5.63;;
47239;SDS011;32978;53.586;10.052;2023-12-22T09:54:53;17.50;;;5.53;;
47239;SDS011;32978;53.586;10.052;2023-12-22T09:59:50;13.77;;;5.70;;
47239;SDS011;32978;53.586;10.052;2023-12-22T10:04:48;14.60;;;5.15;;
47239;SDS011;32978;53.586;10.052;2023-12-22T10:09:45;8.55;;;5.07;;
47239;SDS011;32978;53.586;10.052;2023-12-22T10:14:43;17.13;;;6.22;;
47239;SDS011;32978;53.586;10.052;2023-12-22T10:19:39;12.95;;;6.32;;
47239;SDS011;32978;53.586;10.052;2023-12-22T10:24:36;22.65;;;8.07;;
47239;SDS011;32978;53.586;10.052;2023-12-22T10:29:33;15.45;;;6.65;;
47239;SDS011;32978;53.586;10.052;2023-12-22T10:34:30;12.70;;;6.63;;
47239;SDS011;32978;53.586;10.052;2023-12-22T10:39:27;18.73;;;7.05;;
47239;SDS011;32978;53.586;10.052;2023-12-22T10:44:24;18.13;;;7.60;;
47239;SDS011;32978;53.586;10.052;2023-12-22T10:49:21;15.93;;;6.82;;
47239;SDS011;32978;53.586;10.052;2023-12-22T10:54:18;21.13;;;7.50;;
47239;SDS011;32978;53.586;10.052;2023-12-22T10:59:22;13.23;;;7.22;;
47239;SDS011;32978;53.586;10.052;2023-12-22T11:04:20;17.05;;;7.65;;
47239;SDS011;32978;53.586;10.052;2023-12-22T11:09:16;10.80;;;9.68;;
47239;SDS011;32978;53.586;10.052;2023-12-22T11:14:13;17.13;;;8.18;;
47239;SDS011;32978;53.586;10.052;2023-12-22T11:19:10;19.02;;;8.73;;
47239;SDS011;32978;53.586;10.052;2023-12-22T11:24:07;22.48;;;9.27;;
47239;SDS011;32978;53.586;10.052;2023-12-22T11:29:04;18.40;;;9.48;;
47239;SDS011;32978;53.586;10.052;2023-12-22T11:34:01;14.23;;;9.27;;
47239;SDS011;32978;53.586;10.052;2023-12-22T11:39:07;12.63;;;9.48;;
47239;SDS011;32978;53.586;10.052;2023-12-22T11:44:04;17.83;;;9.55;;
47239;SDS011;32978;53.586;10.052;2023-12-22T11:49:01;13.13;;;8.85;;
47239;SDS011;32978;53.586;10.052;2023-12-22T11:53:58;14.35;;;7.80;;
47239;SDS011;32978;53.586;10.052;2023-12-22T11:58:54;15.48;;;8.85;;
47239;SDS011;32978;53.586;10.052;2023-12-22T12:03:55;15.50;;;8.20;;
47239;SDS011;32978;53.586;10.052;2023-12-22T12:08:53;18.08;;;7.20;;
47239;SDS011;32978;53.586;10.052;2023-12-22T12:13:52;12.05;;;6.45;;
47239;SDS011;32978;53.586;10.052;2023-12-22T12:18:50;15.18;;;7.30;;
47239;SDS011;32978;53.586;10.052;2023-12-22T12:23:49;14.90;;;7.47;;
47239;SDS011;32978;53.586;10.052;2023-12-22T12:28:46;16.42;;;7.50;;
47239;SDS011;32978;53.586;10.052;2023-12-22T12:33:43;15.77;;;6.68;;
47239;SDS011;32978;53.586;10.052;2023-12-22T12:43:37;16.42;;;7.75;;
47239;SDS011;32978;53.586;10.052;2023-12-22T12:48:37;22.77;;;8.60;;
47239;SDS011;32978;53.586;10.052;2023-12-22T12:53:33;12.48;;;8.00;;
47239;SDS011;32978;53.586;10.052;2023-12-22T12:58:32;14.18;;;8.65;;
47239;SDS011;32978;53.586;10.052;2023-12-22T13:03:28;15.43;;;10.23;;
47239;SDS011;32978;53.586;10.052;2023-12-22T13:08:25;13.27;;;10.02;;
47239;SDS011;32978;53.586;10.052;2023-12-22T13:13:43;18.87;;;11.30;;
47239;SDS011;32978;53.586;10.052;2023-12-22T13:23:36;19.73;;;10.68;;
47239;SDS011;32978;53.586;10.052;2023-12-22T13:28:32;14.60;;;12.05;;
47239;SDS011;32978;53.586;10.052;2023-12-22T13:44:54;17.40;;;11.55;;
47239;SDS011;32978;53.586;10.052;2023-12-22T13:50:00;20.52;;;13.32;;
47239;SDS011;32978;53.586;10.052;2023-12-22T14:12:06;25.05;;;11.95;;
47239;SDS011;32978;53.586;10.052;2023-12-22T14:23:22;14.00;;;10.80;;
47239;SDS011;32978;53.586;10.052;2023-12-22T14:29:13;15.48;;;11.23;;
47239;SDS011;32978;53.586;10.052;2023-12-22T14:40:43;16.52;;;11.60;;
47239;SDS011;32978;53.586;10.052;2023-12-22T14:46:14;17.08;;;10.60;;
47239;SDS011;32978;53.586;10.052;2023-12-22T14:51:38;12.25;;;11.00;;
47239;SDS011;32978;53.586;10.052;2023-12-22T14:57:04;15.30;;;11.30;;
47239;SDS011;32978;53.586;10.052;2023-12-22T15:02:27;16.50;;;10.70;;
47239;SDS011;32978;53.586;10.052;2023-12-22T15:19:11;11.90;;;10.55;;
47239;SDS011;32978;53.586;10.052;2023-12-22T15:35:57;14.30;;;9.77;;
47239;SDS011;32978;53.586;10.052;2023-12-22T15:41:06;17.15;;;10.30;;
47239;SDS011;32978;53.586;10.052;2023-12-22T15:46:28;11.45;;;9.18;;
47239;SDS011;32978;53.586;10.052;2023-12-22T15:51:47;14.93;;;9.40;;
47239;SDS011;32978;53.586;10.052;2023-12-22T15:56:54;14.05;;;10.55;;
47239;SDS011;32978;53.586;10.052;2023-12-22T16:01:55;14.85;;;11.68;;
47239;SDS011;32978;53.586;10.052;2023-12-22T16:06:54;15.32;;;10.93;;
47239;SDS011;32978;53.586;10.052;2023-12-22T16:11:55;10.93;;;9.90;;
47239;SDS011;32978;53.586;10.052;2023-12-22T16:16:57;12.35;;;10.43;;
47239;SDS011;32978;53.586;10.052;2023-12-22T16:21:57;13.55;;;10.93;;
47239;SDS011;32978;53.586;10.052;2023-12-22T16:26:54;13.85;;;11.02;;
47239;SDS011;32978;53.586;10.052;2023-12-22T16:31:59;19.20;;;10.60;;
47239;SDS011;32978;53.586;10.052;2023-12-22T16:37:19;21.70;;;12.27;;
47239;SDS011;32978;53.586;10.052;2023-12-22T16:42:30;18.60;;;11.80;;
47239;SDS011;32978;53.586;10.052;2023-12-22T16:47:32;12.30;;;11.20;;
47239;SDS011;32978;53.586;10.052;2023-12-22T16:52:39;20.30;;;11.13;;
47239;SDS011;32978;53.586;10.052;2023-12-22T16:57:37;10.50;;;9.50;;
47239;SDS011;32978;53.586;10.052;2023-12-22T17:02:44;12.38;;;10.52;;
47239;SDS011;32978;53.586;10.052;2023-12-22T17:08:17;14.45;;;11.30;;
47239;SDS011;32978;53.586;10.052;2023-12-22T17:13:27;16.15;;;11.60;;
47239;SDS011;32978;53.586;10.052;2023-12-22T17:18:47;15.60;;;11.48;;
47239;SDS011;32978;53.586;10.052;2023-12-22T17:24:02;14.60;;;10.57;;
47239;SDS011;32978;53.586;10.052;2023-12-22T17:29:01;10.38;;;9.55;;
47239;SDS011;32978;53.586;10.052;2023-12-22T17:34:03;11.55;;;10.55;;
47239;SDS011;32978;53.586;10.052;2023-12-22T17:39:02;10.88;;;9.98;;
47239;SDS011;32978;53.586;10.052;2023-12-22T17:48:59;11.48;;;10.10;;
47239;SDS011;32978;53.586;10.052;2023-12-22T17:53:55;11.98;;;10.00;;
47239;SDS011;32978;53.586;10.052;2023-12-22T17:58:53;12.25;;;10.52;;
47239;SDS011;32978;53.586;10.052;2023-12-22T18:03:50;18.42;;;13.38;;
47239;SDS011;32978;53.586;10.052;2023-12-22T18:08:50;16.65;;;12.30;;
47239;SDS011;32978;53.586;10.052;2023-12-22T18:13:46;12.80;;;10.68;;
47239;SDS011;32978;53.586;10.052;2023-12-22T18:18:42;15.50;;;11.65;;
47239;SDS011;32978;53.586;10.052;2023-12-22T18:23:39;15.60;;;11.20;;
47239;SDS011;32978;53.586;10.052;2023-12-22T18:28:39;11.85;;;10.63;;
47239;SDS011;32978;53.586;10.052;2023-12-22T18:33:35;11.10;;;10.00;;
47239;SDS011;32978;53.586;10.052;2023-12-22T18:38:32;10.45;;;9.15;;
47239;SDS011;32978;53.586;10.052;2023-12-22T18:43:28;16.30;;;9.13;;
47239;SDS011;32978;53.586;10.052;2023-12-22T18:48:24;12.88;;;9.95;;
47239;SDS011;32978;53.586;10.052;2023-12-22T18:53:21;9.73;;;8.80;;
47239;SDS011;32978;53.586;10.052;2023-12-22T18:58:19;13.70;;;9.57;;
47239;SDS011;32978;53.586;10.052;2023-12-22T19:03:25;8.77;;;7.97;;
47239;SDS011;32978;53.586;10.052;2023-12-22T19:08:22;8.57;;;7.78;;
47239;SDS011;32978;53.586;10.052;2023-12-22T19:13:18;7.55;;;6.90;;
47239;SDS011;32978;53.586;10.052;2023-12-22T19:18:15;8.88;;;7.22;;
47239;SDS011;32978;53.586;10.052;2023-12-22T19:23:11;7.05;;;6.47;;
47239;SDS011;32978;53.586;10.052;2023-12-22T19:28:08;7.03;;;6.32;;
47239;SDS011;32978;53.586;10.052;2023-12-22T19:33:04;9.05;;;7.03;;
47239;SDS011;32978;53.586;10.052;2023-12-22T19:38:01;9.50;;;7.57;;
47239;SDS011;32978;53.586;10.052;2023-12-22T19:42:58;10.25;;;8.25;;
47239;SDS011;32978;53.586;10.052;2023-12-22T19:47:54;9.40;;;7.82;;
47239;SDS011;32978;53.586;10.052;2023-12-22T19:52:51;13.15;;;7.88;;
47239;SDS011;32978;53.586;10.052;2023-12-22T19:57:47;10.13;;;7.50;;
47239;SDS011;32978;53.586;10.052;2023-12-22T20:07:56;9.15;;;7.60;;
47239;SDS011;32978;53.586;10.052;2023-12-22T20:12:52;14.20;;;9.10;;
47239;SDS011;32978;53.586;10.052;2023-12-22T20:17:48;14.98;;;8.23;;
47239;SDS011;32978;53.586;10.052;2023-12-22T20:22:45;13.30;;;8.45;;
47239;SDS011;32978;53.586;10.052;2023-12-22T20:27:41;11.77;;;8.73;;
47239;SDS011;32978;53.586;10.052;2023-12-22T20:32:38;15.07;;;8.85;;
47239;SDS011;32978;53.586;10.052;2023-12-22T20:37:36;15.32;;;8.77;;
47239;SDS011;32978;53.586;10.052;2023-12-22T20:42:32;10.57;;;8.43;;
47239;SDS011;32978;53.586;10.052;2023-12-22T20:47:28;15.50;;;8.00;;
47239;SDS011;32978;53.586;10.052;2023-12-22T20:52:25;13.43;;;7.18;;
47239;SDS011;32978;53.586;10.052;2023-12-22T20:57:21;7.32;;;6.25;;
47239;SDS011;32978;53.586;10.052;2023-12-22T21:02:19;12.43;;;6.60;;
47239;SDS011;32978;53.586;10.052;2023-12-22T21:07:17;11.25;;;7.30;;
47239;SDS011;32978;53.586;10.052;2023-12-22T21:12:20;12.93;;;7.65;;
47239;SDS011;32978;53.586;10.052;2023-12-22T21:17:16;9.68;;;7.32;;
47239;SDS011;32978;53.586;10.052;2023-12-22T21:22:14;10.65;;;7.38;;
47239;SDS011;32978;53.586;10.052;2023-12-22T21:27:10;9.35;;;7.90;;
47239;SDS011;32978;53.586;10.052;2023-12-22T21:37:18;7.72;;;6.75;;
47239;SDS011;32978;53.586;10.052;2023-12-22T21:42:16;12.77;;;6.35;;
47239;SDS011;32978;53.586;10.052;2023-12-22T21:47:12;10.02;;;6.00;;
47239;SDS011;32978;53.586;10.052;2023-12-22T21:52:10;13.57;;;6.75;;
47239;SDS011;32978;53.586;10.052;2023-12-22T21:57:06;12.73;;;7.13;;
47239;SDS011;32978;53.586;10.052;2023-12-22T22:02:02;12.25;;;6.80;;
47239;SDS011;32978;53.586;10.052;2023-12-22T22:06:59;8.98;;;8.15;;
47239;SDS011;32978;53.586;10.052;2023-12-22T22:11:55;8.90;;;8.10;;
47239;SDS011;32978;53.586;10.052;2023-12-22T22:16:51;10.73;;;9.57;;
47239;SDS011;32978;53.586;10.052;2023-12-22T22:21:48;13.50;;;9.82;;
47239;SDS011;32978;53.586;10.052;2023-12-22T22:26:44;9.68;;;8.77;;
47239;SDS011;32978;53.586;10.052;2023-12-22T22:31:41;14.07;;;8.60;;
47239;SDS011;32978;53.586;10.052;2023-12-22T22:36:37;9.98;;;7.80;;
47239;SDS011;32978;53.586;10.052;2023-12-22T22:41:34;9.63;;;8.60;;
47239;SDS011;32978;53.586;10.052;2023-12-22T22:46:30;7.97;;;7.28;;
47239;SDS011;32978;53.586;10.052;2023-12-22T22:51:26;10.75;;;7.85;;
47239;SDS011;32978;53.586;10.052;2023-12-22T22:56:23;12.85;;;7.35;;
47239;SDS011;32978;53.586;10.052;2023-12-22T23:01:19;8.15;;;7.35;;
47239;SDS011;32978;53.586;10.052;2023-12-22T23:06:16;10.25;;;6.53;;
47239;SDS011;32978;53.586;10.052;2023-12-22T23:11:13;8.73;;;6.18;;
47239;SDS011;32978;53.586;10.052;2023-12-22T23:16:09;8.95;;;6.60;;
47239;SDS011;32978;53.586;10.052;2023-12-22T23:21:06;9.73;;;7.22;;
47239;SDS011;32978;53.586;10.052;2023-12-22T23:26:02;9.48;;;5.93;;
47239;SDS011;32978;53.586;10.052;2023-12-22T23:30:58;7.80;;;7.00;;
47239;SDS011;32978;53.586;10.052;2023-12-22T23:35:55;10.18;;;6.68;;
47239;SDS011;32978;53.586;10.052;2023-12-22T23:40:51;18.10;;;7.38;;
47239;SDS011;32978;53.586;10.052;2023-12-22T23:45:48;10.57;;;7.15;;
47239;SDS011;32978;53.586;10.052;2023-12-22T23:50:44;10.70;;;7.20;;
47239;SDS011;32978;53.586;10.052;2023-12-22T23:55:40;8.82;;;7.43;;
